Bay Bridge — 3FCS5 — position and weather

sailwx.info

Track history (hours):
 
Tides and Currents Weather Stations Pressure Air Temp Water Temp Dewpoint Dewpoint Depression Visibility Wind Speed Wind Dir Waves Ship Positions

Bay Bridge

Last reported at 2018-Feb-22 19:00 UTC. Time now 2018-Feb-22 19:09 UTC.
Position N 33°37' W 118°44'.

Length 267 m; draft 11.4 m.

Type: Ship (hazmat cat A). MMSI: 354120000.

Date/timePositionNaut miles runAvg speedWind from/ knotsBaromVisibWave heightAir tempDewpointWater temp
2018-Feb-22 19:00N 33°37' W 118°44'510.2
2018-Feb-22 18:30N 33°37' W 118°50'510.2
2018-Feb-22 18:00N 33°38' W 118°56'510.1
2018-Feb-22 17:30N 33°38' W 119°02'510.2
2018-Feb-22 17:00N 33°38' W 119°08'510.2
2018-Feb-22 16:30N 33°38' W 119°14'510.1
2018-Feb-22 16:00N 33°38' W 119°20'510.4
2018-Feb-22 15:30N 33°38' W 119°27'510.2
2018-Feb-22 15:00N 33°38' W 119°33'510.1
2018-Feb-22 14:30N 33°38' W 119°39'510.3
2018-Feb-22 14:00N 33°38' W 119°45'510.2
2018-Feb-22 13:30N 33°38' W 119°51'610.2
2018-Feb-22 12:57N 33°38' W 119°58'510.3
2018-Feb-22 12:29N 33°38' W 120°04'510.2
2018-Feb-22 12:00N 33°38' W 120°10'510.2
2018-Feb-22 11:28N 33°38' W 120°16'510.6
2018-Feb-22 11:00N 33°38' W 120°22'610.7
2018-Feb-22 10:27N 33°38' W 120°29'510.4
2018-Feb-22 10:00N 33°38' W 120°35'510.1
2018-Feb-22 09:30N 33°38' W 120°41'510.1
2018-Feb-22 09:00N 33°38' W 120°47'510.4
2018-Feb-22 08:30N 33°38' W 120°53'510.8
2018-Feb-22 08:00N 33°39' W 120°59'611.4
2018-Feb-22 07:30N 33°40' W 121°06'611.7
2018-Feb-22 07:00N 33°42' W 121°13'611.6
2018-Feb-22 06:30N 33°43' W 121°20'612.0
2018-Feb-22 06:00N 33°45' W 121°27'612.2
2018-Feb-22 05:30N 33°46' W 121°34'612.2
2018-Feb-22 05:00N 33°47' W 121°41'11814.7
2018-Feb-21 21:00N 34°12' W 124°00'42316.3 320 / 121026.0 5.4 21.014.621.0
2018-Feb-20 19:00N 36°06' W 132°18'46518.6 320 / 111032.0 13.010.022.0
2018-Feb-19 18:00N 37°36' W 141°48'37619.8 050 / 121030.1 5.4 12.0 9.021.0
2018-Feb-18 23:00N 38°18' W 149°42'97119.4 140 / 191020.0 5.4 14.013.020.0
2018-Feb-16 21:00N 37°36' W 170°12'   360 / 151014.9 5.4 11.010.020.0
Track history (hours):
 
Tides and Currents Weather Stations Pressure Air Temp Water Temp Dewpoint Dewpoint Depression Visibility Wind Speed Wind Dir Waves Ship Positions

Bay Bridge

Last reported at 2018-Feb-22 19:00 UTC. Time now 2018-Feb-22 19:09 UTC.
Position N 33°37' W 118°44'.

Length 267 m; draft 11.4 m.

Type: Ship (hazmat cat A). MMSI: 354120000.

Date/timePositionNaut miles runAvg speedWind from/ knotsBaromVisibWave heightAir tempDewpointWater temp
2018-Feb-22 19:00N 33°37' W 118°44'510.2
2018-Feb-22 18:30N 33°37' W 118°50'510.2
2018-Feb-22 18:00N 33°38' W 118°56'510.1
2018-Feb-22 17:30N 33°38' W 119°02'510.2
2018-Feb-22 17:00N 33°38' W 119°08'510.2
2018-Feb-22 16:30N 33°38' W 119°14'510.1
2018-Feb-22 16:00N 33°38' W 119°20'510.4
2018-Feb-22 15:30N 33°38' W 119°27'510.2
2018-Feb-22 15:00N 33°38' W 119°33'510.1
2018-Feb-22 14:30N 33°38' W 119°39'510.3
2018-Feb-22 14:00N 33°38' W 119°45'510.2
2018-Feb-22 13:30N 33°38' W 119°51'610.2
2018-Feb-22 12:57N 33°38' W 119°58'510.3
2018-Feb-22 12:29N 33°38' W 120°04'510.2
2018-Feb-22 12:00N 33°38' W 120°10'510.2
2018-Feb-22 11:28N 33°38' W 120°16'510.6
2018-Feb-22 11:00N 33°38' W 120°22'610.7
2018-Feb-22 10:27N 33°38' W 120°29'510.4
2018-Feb-22 10:00N 33°38' W 120°35'510.1
2018-Feb-22 09:30N 33°38' W 120°41'510.1
2018-Feb-22 09:00N 33°38' W 120°47'510.4
2018-Feb-22 08:30N 33°38' W 120°53'510.8
2018-Feb-22 08:00N 33°39' W 120°59'611.4
2018-Feb-22 07:30N 33°40' W 121°06'611.7
2018-Feb-22 07:00N 33°42' W 121°13'611.6
2018-Feb-22 06:30N 33°43' W 121°20'612.0
2018-Feb-22 06:00N 33°45' W 121°27'612.2
2018-Feb-22 05:30N 33°46' W 121°34'612.2
2018-Feb-22 05:00N 33°47' W 121°41'11814.7
2018-Feb-21 21:00N 34°12' W 124°00'42316.3 320 / 121026.0 5.4 21.014.621.0
2018-Feb-20 19:00N 36°06' W 132°18'46518.6 320 / 111032.0 13.010.022.0
2018-Feb-19 18:00N 37°36' W 141°48'37619.8 050 / 121030.1 5.4 12.0 9.021.0
2018-Feb-18 23:00N 38°18' W 149°42'97119.4 140 / 191020.0 5.4 14.013.020.0
2018-Feb-16 21:00N 37°36' W 170°12'   360 / 151014.9 5.4 11.010.020.0

Dump ship's entire track history